Time;durP1;ratioP1;P1;durP2;ratioP2;P2;SDS_P1;SDS_P2;PMS_P1;PMS_P2;Temp;Humidity;BMP_temperature;BMP_pressure;BME280_temperature;BME280_humidity;BME280_pressure;Samples;Min_cycle;Max_cycle;Signal;HPM_P1;HPM_P2
2024/02/24 00:00:50;;;;;;;2.72;2.30;;;6.90;99.90;;;;;;5072552;28;20206;-72
2024/02/24 00:03:17;;;;;;;2.60;1.40;;;6.90;99.90;;;;;;5071801;28;20211;-71
2024/02/24 00:05:44;;;;;;;3.53;2.90;;;6.90;99.90;;;;;;5074632;28;20206;-73
2024/02/24 00:08:11;;;;;;;2.92;2.38;;;6.90;99.90;;;;;;5076823;28;20257;-73
2024/02/24 00:10:39;;;;;;;2.92;2.40;;;6.90;99.90;;;;;;5071407;28;20268;-72
2024/02/24 00:13:08;;;;;;;4.88;1.80;;;6.80;99.90;;;;;;5080233;28;20250;-72
2024/02/24 00:15:35;;;;;;;3.20;2.10;;;6.80;99.90;;;;;;5079833;28;20234;-72
2024/02/24 00:18:05;;;;;;;5.25;2.22;;;6.70;99.90;;;;;;5073371;28;20199;-74
2024/02/24 00:20:32;;;;;;;6.78;2.63;;;6.70;99.90;;;;;;5071920;28;20280;-74
2024/02/24 00:22:59;;;;;;;5.50;2.17;;;6.70;99.90;;;;;;5075951;28;20770;-72
2024/02/24 00:25:26;;;;;;;3.78;2.47;;;6.70;99.90;;;;;;5083419;28;20263;-72
2024/02/24 00:27:53;;;;;;;7.68;2.10;;;6.70;99.90;;;;;;5081174;28;20297;-75
2024/02/24 00:30:20;;;;;;;4.22;2.20;;;6.60;99.90;;;;;;5078133;28;20203;-72
2024/02/24 00:32:47;;;;;;;5.35;2.17;;;6.60;99.90;;;;;;5070593;28;20222;-74
2024/02/24 00:35:16;;;;;;;3.95;2.00;;;6.60;99.90;;;;;;5072053;28;20235;-73
2024/02/24 00:37:43;;;;;;;3.90;2.20;;;6.50;99.90;;;;;;5076635;28;20643;-73
2024/02/24 00:40:11;;;;;;;8.68;2.65;;;6.50;99.90;;;;;;5081252;28;20256;-71
2024/02/24 00:42:38;;;;;;;3.30;2.90;;;6.40;99.90;;;;;;5077575;28;20777;-72
2024/02/24 00:45:06;;;;;;;7.78;2.17;;;6.40;99.90;;;;;;5082630;28;20618;-71
2024/02/24 00:47:33;;;;;;;3.67;2.17;;;6.40;99.90;;;;;;5082192;28;20290;-72
2024/02/24 00:50:00;;;;;;;10.13;2.30;;;6.40;99.90;;;;;;5076642;28;20204;-74
2024/02/24 00:52:29;;;;;;;4.28;2.05;;;6.30;99.90;;;;;;5080388;28;20215;-73
2024/02/24 00:54:56;;;;;;;5.88;2.10;;;6.30;99.90;;;;;;5083928;28;20276;-72
2024/02/24 00:57:24;;;;;;;6.13;1.65;;;6.30;99.90;;;;;;5077667;28;20695;-72
2024/02/24 00:59:51;;;;;;;7.03;2.20;;;6.30;99.90;;;;;;5076985;28;20204;-75
2024/02/24 01:02:18;;;;;;;5.53;4.38;;;6.30;99.90;;;;;;5084349;28;20199;-76
2024/02/24 01:04:45;;;;;;;12.00;3.75;;;6.30;99.90;;;;;;5085318;28;20195;-72
2024/02/24 01:07:15;;;;;;;5.57;2.40;;;6.30;99.90;;;;;;5076991;28;20553;-71
2024/02/24 01:09:43;;;;;;;7.88;2.97;;;6.20;99.90;;;;;;5075784;28;20235;-74
2024/02/24 01:12:12;;;;;;;4.93;2.88;;;6.20;99.90;;;;;;5078549;28;20251;-74
2024/02/24 01:14:39;;;;;;;9.68;3.20;;;6.20;99.90;;;;;;5075161;28;20612;-74
2024/02/24 01:17:06;;;;;;;6.30;2.90;;;6.20;99.90;;;;;;5075864;28;20199;-74
2024/02/24 01:19:33;;;;;;;5.03;2.25;;;6.20;99.90;;;;;;5076067;28;20210;-74
2024/02/24 01:22:00;;;;;;;5.93;2.70;;;6.20;99.90;;;;;;5084850;28;20657;-74
2024/02/24 01:24:27;;;;;;;2.85;2.55;;;6.10;99.90;;;;;;5079933;28;20272;-74
2024/02/24 01:26:55;;;;;;;6.75;2.90;;;6.10;99.90;;;;;;5089454;28;20199;-74
2024/02/24 01:29:22;;;;;;;9.13;2.03;;;6.10;99.90;;;;;;5079804;28;20257;-76
2024/02/24 01:31:49;;;;;;;6.57;2.53;;;6.00;99.90;;;;;;5075999;28;20211;-73
2024/02/24 01:34:16;;;;;;;7.70;2.15;;;6.00;99.90;;;;;;5081586;28;20227;-73
2024/02/24 01:36:43;;;;;;;2.72;1.95;;;6.00;99.90;;;;;;5088117;28;20195;-71
2024/02/24 01:39:10;;;;;;;7.95;2.80;;;6.00;99.90;;;;;;5076114;28;20200;-71
2024/02/24 01:41:37;;;;;;;5.65;2.28;;;6.00;99.90;;;;;;5084630;28;20204;-71
2024/02/24 01:44:06;;;;;;;4.90;2.53;;;6.00;99.90;;;;;;5074804;28;20269;-72
2024/02/24 01:46:33;;;;;;;4.50;2.22;;;6.00;99.90;;;;;;5074207;28;20215;-75
2024/02/24 01:49:00;;;;;;;3.60;1.80;;;5.90;99.90;;;;;;5079035;28;20229;-72
2024/02/24 01:51:28;;;;;;;10.98;3.30;;;6.00;99.90;;;;;;5075169;28;20629;-74
2024/02/24 01:53:56;;;;;;;5.35;2.40;;;5.90;99.90;;;;;;5082447;28;20227;-70
2024/02/24 01:56:24;;;;;;;16.23;3.00;;;5.90;99.90;;;;;;5075164;28;20272;-74
2024/02/24 01:58:51;;;;;;;3.45;1.75;;;5.90;99.90;;;;;;5077422;28;20213;-73
2024/02/24 02:01:21;;;;;;;4.07;2.00;;;5.90;99.90;;;;;;5078284;28;20666;-75
2024/02/24 02:03:48;;;;;;;5.32;2.97;;;5.80;99.90;;;;;;5073898;28;20634;-76
2024/02/24 02:06:15;;;;;;;10.35;2.97;;;5.80;99.90;;;;;;5075090;28;20235;-74
2024/02/24 02:08:42;;;;;;;8.88;2.53;;;5.70;99.90;;;;;;5079572;28;20207;-72
2024/02/24 02:11:11;;;;;;;4.30;2.72;;;5.70;99.90;;;;;;5079288;28;20203;-74
2024/02/24 02:13:38;;;;;;;5.07;2.70;;;5.70;99.90;;;;;;5075840;28;20222;-74
2024/02/24 02:16:06;;;;;;;9.55;2.55;;;5.70;99.90;;;;;;5076368;28;20211;-73
2024/02/24 02:18:34;;;;;;;4.50;2.33;;;5.70;99.90;;;;;;5076962;28;20593;-72
2024/02/24 02:21:02;;;;;;;2.70;1.50;;;5.70;99.90;;;;;;5074381;28;20257;-74
2024/02/24 02:23:30;;;;;;;8.60;6.05;;;5.60;99.90;;;;;;5073246;28;20241;-74
2024/02/24 02:25:57;;;;;;;4.25;2.15;;;5.70;99.90;;;;;;5073610;28;20714;-73
2024/02/24 02:28:24;;;;;;;5.22;1.90;;;5.60;99.90;;;;;;5079506;28;20257;-74
2024/02/24 02:30:51;;;;;;;6.80;2.78;;;5.60;99.90;;;;;;5073315;28;20293;-75
2024/02/24 02:33:18;;;;;;;3.22;1.80;;;5.60;99.90;;;;;;5076459;28;20223;-72
2024/02/24 02:35:45;;;;;;;8.63;2.95;;;5.60;99.90;;;;;;5085499;28;20278;-75
2024/02/24 02:38:12;;;;;;;6.07;3.08;;;5.50;99.90;;;;;;5079586;28;20204;-75
2024/02/24 02:40:41;;;;;;;3.90;2.53;;;5.60;99.90;;;;;;5077708;28;20203;-75
2024/02/24 02:43:08;;;;;;;6.80;1.80;;;5.60;99.90;;;;;;5078902;28;20218;-70
2024/02/24 02:45:35;;;;;;;6.75;2.25;;;5.60;99.90;;;;;;5079236;28;20204;-72
2024/02/24 02:48:02;;;;;;;5.95;2.75;;;5.60;99.90;;;;;;5081661;28;20203;-74
2024/02/24 02:50:29;;;;;;;4.60;2.25;;;5.60;99.90;;;;;;5095527;28;20203;-73
2024/02/24 02:52:56;;;;;;;3.00;2.20;;;5.60;99.90;;;;;;5073361;28;20733;-74
2024/02/24 02:55:24;;;;;;;6.22;2.35;;;5.60;99.90;;;;;;5074010;28;20215;-73
2024/02/24 02:57:52;;;;;;;5.55;2.92;;;5.60;99.90;;;;;;5074564;28;20237;-74
2024/02/24 03:00:20;;;;;;;3.60;2.03;;;5.50;99.90;;;;;;5075723;28;20211;-74
2024/02/24 03:02:47;;;;;;;3.40;2.15;;;5.60;99.90;;;;;;5073102;28;20223;-71
2024/02/24 03:05:14;;;;;;;5.10;2.05;;;5.60;99.90;;;;;;5077822;28;20280;-73
2024/02/24 03:07:40;;;;;;;5.95;3.10;;;5.60;99.90;;;;;;5075696;28;20246;-75
2024/02/24 03:10:09;;;;;;;4.38;3.67;;;5.60;99.90;;;;;;5076386;28;20203;-76
2024/02/24 03:12:36;;;;;;;3.55;2.15;;;5.60;99.90;;;;;;5077631;28;20292;-75
2024/02/24 03:15:05;;;;;;;3.85;1.98;;;5.60;99.90;;;;;;5081454;28;20223;-72
2024/02/24 03:17:32;;;;;;;10.45;2.33;;;5.50;99.90;;;;;;5079056;28;20203;-72
2024/02/24 03:19:59;;;;;;;7.97;2.50;;;5.50;99.90;;;;;;5074238;28;20249;-72
2024/02/24 03:22:27;;;;;;;4.55;1.83;;;5.50;99.90;;;;;;5076765;28;20253;-73
2024/02/24 03:24:54;;;;;;;6.80;2.15;;;5.40;99.90;;;;;;5079724;28;20245;-73
2024/02/24 03:27:22;;;;;;;7.53;3.35;;;5.40;99.90;;;;;;5080038;28;20195;-73
2024/02/24 03:29:49;;;;;;;10.30;2.33;;;5.40;99.90;;;;;;5073716;28;20203;-73
2024/02/24 03:32:17;;;;;;;7.07;1.88;;;5.30;99.90;;;;;;5078083;28;20257;-72
2024/02/24 03:34:44;;;;;;;4.43;1.85;;;5.30;99.90;;;;;;5072839;28;20227;-74
2024/02/24 03:37:11;;;;;;;4.30;2.00;;;5.20;99.90;;;;;;5077549;28;20289;-74
2024/02/24 03:39:38;;;;;;;7.60;2.67;;;5.30;99.90;;;;;;5076705;28;20199;-77
2024/02/24 03:42:06;;;;;;;9.43;2.30;;;5.30;99.90;;;;;;5082314;28;20199;-76
2024/02/24 03:44:33;;;;;;;7.07;2.53;;;5.30;99.90;;;;;;5081176;28;20624;-76
2024/02/24 03:47:00;;;;;;;3.25;2.72;;;5.40;99.90;;;;;;5078422;28;20241;-76
2024/02/24 03:49:28;;;;;;;4.35;1.92;;;5.20;99.90;;;;;;5078546;28;20253;-73
2024/02/24 03:51:55;;;;;;;18.08;2.30;;;5.30;99.90;;;;;;5074537;28;20265;-74
2024/02/24 03:54:22;;;;;;;4.43;1.85;;;5.20;99.90;;;;;;5077162;28;20223;-70
2024/02/24 03:56:49;;;;;;;5.05;2.30;;;5.20;99.90;;;;;;5075302;28;20209;-73
2024/02/24 03:59:17;;;;;;;3.20;2.72;;;5.20;99.90;;;;;;5076245;28;20211;-73
2024/02/24 04:01:45;;;;;;;7.78;3.30;;;5.20;99.90;;;;;;5076425;28;20294;-73
2024/02/24 04:04:12;;;;;;;4.85;2.42;;;5.30;99.90;;;;;;5075275;28;20215;-73
2024/02/24 04:06:43;;;;;;;3.78;2.00;;;5.20;99.90;;;;;;5075583;28;20212;-71
2024/02/24 04:09:10;;;;;;;4.70;2.10;;;5.30;99.90;;;;;;5072785;28;20199;-74
2024/02/24 04:11:36;;;;;;;4.88;2.08;;;5.30;99.90;;;;;;5072335;28;20203;-73
2024/02/24 04:14:04;;;;;;;4.72;2.65;;;5.30;99.90;;;;;;5073166;28;20227;-71
2024/02/24 04:16:31;;;;;;;10.93;2.38;;;5.40;99.90;;;;;;5081967;28;20210;-76
2024/02/24 04:18:58;;;;;;;5.28;2.83;;;5.40;99.90;;;;;;5077462;28;20269;-74
2024/02/24 04:21:24;;;;;;;4.45;2.00;;;5.40;99.90;;;;;;5080240;28;20677;-72
2024/02/24 04:23:53;;;;;;;6.32;2.10;;;5.40;99.90;;;;;;5085763;28;20219;-74
2024/02/24 04:26:20;;;;;;;8.88;2.95;;;5.50;99.90;;;;;;5079880;28;20656;-74
2024/02/24 04:28:47;;;;;;;4.82;1.83;;;5.50;99.90;;;;;;5084916;28;20607;-74
2024/02/24 04:31:14;;;;;;;6.38;2.33;;;5.60;99.90;;;;;;5075920;28;20212;-73
2024/02/24 04:33:41;;;;;;;4.65;2.10;;;5.70;99.90;;;;;;5075431;28;20679;-73
2024/02/24 04:36:09;;;;;;;4.75;2.00;;;5.80;99.90;;;;;;5077077;28;20219;-76
2024/02/24 04:38:37;;;;;;;2.67;1.73;;;5.80;99.90;;;;;;5085967;28;20207;-70
2024/02/24 04:41:05;;;;;;;4.18;1.95;;;5.80;99.90;;;;;;5086276;28;20661;-73
2024/02/24 04:43:33;;;;;;;4.20;1.70;;;5.80;99.90;;;;;;5085378;28;20257;-76
2024/02/24 04:45:59;;;;;;;6.05;2.10;;;5.80;99.90;;;;;;5081306;28;20195;-72
2024/02/24 04:48:27;;;;;;;4.22;2.42;;;5.70;99.90;;;;;;5082886;28;20202;-73
2024/02/24 04:50:53;;;;;;;8.98;4.05;;;5.80;99.90;;;;;;5088105;28;20648;-72
2024/02/24 04:53:20;;;;;;;5.65;1.95;;;5.70;99.90;;;;;;5076867;28;20219;-74
2024/02/24 04:55:47;;;;;;;7.38;2.95;;;5.80;99.90;;;;;;5085200;28;20254;-75
2024/02/24 04:58:16;;;;;;;10.10;2.75;;;5.80;99.90;;;;;;5082393;28;20537;-75
2024/02/24 05:00:43;;;;;;;5.22;1.83;;;5.90;99.90;;;;;;5078553;28;20215;-72
2024/02/24 05:03:10;;;;;;;3.40;1.85;;;5.90;99.90;;;;;;5076196;28;20568;-73
2024/02/24 05:05:37;;;;;;;4.50;1.83;;;5.90;99.90;;;;;;5083244;28;20210;-73
2024/02/24 05:08:05;;;;;;;9.73;2.13;;;5.90;99.90;;;;;;5079987;28;20207;-71
2024/02/24 05:10:31;;;;;;;2.47;1.40;;;5.90;99.90;;;;;;5075754;28;20291;-72
2024/02/24 05:12:59;;;;;;;8.80;3.10;;;6.00;99.90;;;;;;5074731;28;20637;-74
2024/02/24 05:15:27;;;;;;;7.32;2.42;;;6.00;99.90;;;;;;5083844;28;20218;-75
2024/02/24 05:17:54;;;;;;;6.53;3.10;;;6.00;99.90;;;;;;5081177;28;20216;-73
2024/02/24 05:20:21;;;;;;;5.15;3.03;;;6.10;99.90;;;;;;5082763;28;20191;-71
2024/02/24 05:22:48;;;;;;;17.05;3.17;;;6.10;99.90;;;;;;5084500;28;20732;-72
2024/02/24 05:25:16;;;;;;;3.80;1.83;;;6.10;99.90;;;;;;5085481;28;20535;-75
2024/02/24 05:27:43;;;;;;;7.30;2.25;;;6.10;99.90;;;;;;5075585;28;20199;-76
2024/02/24 05:30:11;;;;;;;8.20;2.15;;;6.10;99.90;;;;;;5076163;28;20662;-73
2024/02/24 05:32:39;;;;;;;6.60;2.70;;;6.10;99.90;;;;;;5075249;28;20255;-71
2024/02/24 05:35:06;;;;;;;2.28;1.45;;;6.10;99.90;;;;;;5084230;28;20655;-73
2024/02/24 05:37:33;;;;;;;3.65;1.75;;;6.10;99.90;;;;;;5076187;28;20235;-72
2024/02/24 05:40:02;;;;;;;3.92;2.20;;;6.10;99.90;;;;;;5083971;28;20253;-73
2024/02/24 05:42:29;;;;;;;3.60;2.17;;;6.10;99.90;;;;;;5075427;28;20233;-74
2024/02/24 05:44:56;;;;;;;3.90;1.85;;;6.10;99.90;;;;;;5082210;28;20196;-73
2024/02/24 05:47:23;;;;;;;13.05;2.45;;;6.10;99.90;;;;;;5079645;28;20626;-73
2024/02/24 05:49:52;;;;;;;6.25;2.15;;;6.00;99.90;;;;;;5088638;28;20215;-73
2024/02/24 05:52:19;;;;;;;3.75;2.17;;;6.00;99.90;;;;;;5085447;28;20559;-76
2024/02/24 05:54:57;;;;;;;3.05;2.40;;;6.00;99.90;;;;;;5094336;28;20298;-74
2024/02/24 05:57:24;;;;;;;5.72;2.22;;;5.90;99.90;;;;;;5095473;28;20226;-74
2024/02/24 05:59:51;;;;;;;8.50;3.25;;;5.90;99.90;;;;;;5092558;28;20246;-74
2024/02/24 06:02:18;;;;;;;3.70;1.45;;;5.90;99.90;;;;;;5074947;28;20199;-74
2024/02/24 06:04:45;;;;;;;3.60;2.00;;;5.90;99.90;;;;;;5074939;28;20195;-72
2024/02/24 06:07:13;;;;;;;5.20;2.72;;;6.00;99.90;;;;;;5081349;28;20199;-71
2024/02/24 06:09:40;;;;;;;5.32;2.42;;;5.90;99.90;;;;;;5084308;28;20646;-74
2024/02/24 06:12:08;;;;;;;4.70;2.22;;;5.90;99.90;;;;;;5083416;28;20227;-75
2024/02/24 06:14:35;;;;;;;5.28;2.25;;;5.90;99.90;;;;;;5076388;28;20206;-72
2024/02/24 06:17:03;;;;;;;13.73;2.80;;;5.90;99.90;;;;;;5079805;28;20245;-75
2024/02/24 06:19:30;;;;;;;5.30;2.65;;;6.00;99.90;;;;;;5080980;28;20305;-74
2024/02/24 06:21:57;;;;;;;5.05;2.28;;;6.00;99.90;;;;;;5084580;28;20245;-72
2024/02/24 06:24:25;;;;;;;8.63;2.80;;;6.00;99.90;;;;;;5076243;28;20257;-75
2024/02/24 06:26:52;;;;;;;3.88;2.30;;;6.00;99.90;;;;;;5074272;28;20203;-72
2024/02/24 06:29:19;;;;;;;5.93;2.97;;;6.00;99.90;;;;;;5076683;28;20573;-73
2024/02/24 06:31:46;;;;;;;9.07;2.35;;;6.00;99.90;;;;;;5073535;28;20211;-71
2024/02/24 06:34:15;;;;;;;9.45;4.20;;;6.00;99.90;;;;;;5077332;28;20599;-75
2024/02/24 06:36:41;;;;;;;8.35;2.33;;;6.00;99.90;;;;;;5076660;28;20224;-73
2024/02/24 06:39:08;;;;;;;7.65;2.70;;;6.00;99.90;;;;;;5088020;28;20234;-74
2024/02/24 06:41:37;;;;;;;5.78;2.97;;;6.10;99.90;;;;;;5073669;28;20701;-72
2024/02/24 06:44:04;;;;;;;4.20;2.00;;;6.10;99.90;;;;;;5073469;28;20219;-74
2024/02/24 06:46:31;;;;;;;4.72;2.65;;;6.20;99.90;;;;;;5073465;28;20617;-71
2024/02/24 06:48:58;;;;;;;5.20;2.17;;;6.20;99.90;;;;;;5074106;28;20763;-72
2024/02/24 06:51:25;;;;;;;3.90;2.00;;;6.30;99.90;;;;;;5078416;28;20203;-72
2024/02/24 06:53:54;;;;;;;8.48;2.53;;;6.30;99.90;;;;;;5075138;28;20744;-71
2024/02/24 06:56:21;;;;;;;3.47;2.10;;;6.30;99.90;;;;;;5072867;28;20228;-71
2024/02/24 06:58:49;;;;;;;3.30;2.30;;;6.30;99.90;;;;;;5074322;28;20302;-70
2024/02/24 07:01:22;;;;;;;4.03;2.53;;;6.40;99.90;;;;;;5073245;28;20253;-71
2024/02/24 07:03:49;;;;;;;4.43;2.42;;;6.40;99.90;;;;;;5073099;28;20642;-74
2024/02/24 07:06:18;;;;;;;3.50;2.03;;;6.50;99.90;;;;;;5081578;28;20219;-74
2024/02/24 07:08:46;;;;;;;4.05;3.15;;;6.60;99.90;;;;;;5082366;28;20282;-70
2024/02/24 07:11:12;;;;;;;4.97;1.63;;;6.70;99.90;;;;;;5074124;28;20283;-72
2024/02/24 07:13:39;;;;;;;6.57;2.38;;;6.80;99.90;;;;;;5076794;28;20258;-72
2024/02/24 07:16:08;;;;;;;5.25;1.50;;;7.00;99.90;;;;;;5077409;28;20223;-74
2024/02/24 07:18:37;;;;;;;4.03;2.95;;;7.10;99.90;;;;;;5076544;28;20249;-72
2024/02/24 07:21:04;;;;;;;3.05;2.22;;;7.20;99.90;;;;;;5077647;28;20203;-71
2024/02/24 07:23:31;;;;;;;3.03;2.00;;;7.10;99.90;;;;;;5079708;28;20255;-73
2024/02/24 07:25:59;;;;;;;3.53;1.80;;;7.20;99.90;;;;;;5073622;28;20249;-73
2024/02/24 07:28:26;;;;;;;8.07;2.33;;;7.10;99.90;;;;;;5074432;28;20245;-73
2024/02/24 07:30:53;;;;;;;7.10;2.08;;;7.10;99.90;;;;;;5082652;28;20689;-73
2024/02/24 07:33:22;;;;;;;6.43;2.33;;;6.90;99.90;;;;;;5073058;28;20246;-74
2024/02/24 07:35:49;;;;;;;6.35;2.33;;;6.80;99.90;;;;;;5072536;28;20280;-72
2024/02/24 07:38:16;;;;;;;7.72;2.30;;;6.80;99.90;;;;;;5076391;28;20203;-72
2024/02/24 07:40:43;;;;;;;7.82;3.75;;;6.70;99.90;;;;;;5081764;28;20199;-72
2024/02/24 07:43:10;;;;;;;9.77;2.55;;;6.60;99.90;;;;;;5076699;28;20689;-74
2024/02/24 07:45:37;;;;;;;8.05;3.25;;;6.70;99.90;;;;;;5077200;28;20719;-73
2024/02/24 07:48:07;;;;;;;7.95;3.10;;;6.70;99.90;;;;;;5080157;28;20238;-73
2024/02/24 07:50:35;;;;;;;5.68;3.30;;;6.70;99.90;;;;;;5075875;28;20282;-72
2024/02/24 07:53:03;;;;;;;7.40;2.75;;;6.70;99.90;;;;;;5073073;28;20301;-75
2024/02/24 07:55:30;;;;;;;5.68;2.63;;;6.70;99.90;;;;;;5087403;28;20719;-74
2024/02/24 07:57:57;;;;;;;3.85;2.30;;;6.80;99.90;;;;;;5087961;28;20225;-72
2024/02/24 08:00:25;;;;;;;4.22;2.45;;;6.80;99.90;;;;;;5072116;28;20751;-71
2024/02/24 08:02:52;;;;;;;10.35;4.13;;;6.90;99.90;;;;;;5079814;28;20639;-75
2024/02/24 08:05:19;;;;;;;5.07;2.50;;;7.00;99.90;;;;;;5074709;28;20210;-72
2024/02/24 08:07:48;;;;;;;6.35;2.63;;;6.90;99.90;;;;;;5073909;28;20213;-72
2024/02/24 08:10:15;;;;;;;6.68;2.28;;;7.00;99.90;;;;;;5084921;28;20363;-73
2024/02/24 08:12:42;;;;;;;6.13;2.20;;;7.00;99.90;;;;;;5079359;28;20222;-71
2024/02/24 08:15:10;;;;;;;2.67;2.33;;;7.10;99.90;;;;;;5073149;28;20200;-75
2024/02/24 08:17:38;;;;;;;6.63;2.38;;;7.20;99.90;;;;;;5083787;28;20611;-74
2024/02/24 08:20:08;;;;;;;8.95;3.45;;;7.30;99.90;;;;;;5073997;28;20245;-70
2024/02/24 08:22:35;;;;;;;2.97;2.47;;;7.20;99.90;;;;;;5073706;28;20623;-74
2024/02/24 08:25:04;;;;;;;8.02;4.10;;;7.30;99.90;;;;;;5073204;28;20203;-72
2024/02/24 08:27:31;;;;;;;7.05;3.05;;;7.40;99.90;;;;;;5078254;28;20704;-73
2024/02/24 08:29:58;;;;;;;7.20;2.25;;;7.50;99.90;;;;;;5072231;28;20204;-72
2024/02/24 08:32:25;;;;;;;13.63;4.00;;;7.60;99.90;;;;;;5077236;28;20206;-74
2024/02/24 08:34:51;;;;;;;6.95;3.83;;;7.60;99.90;;;;;;5082817;28;20203;-69
2024/02/24 08:37:19;;;;;;;7.45;3.38;;;7.60;99.90;;;;;;5085084;28;20280;-72
2024/02/24 08:39:45;;;;;;;10.57;2.97;;;7.80;99.90;;;;;;5073414;28;20200;-72
2024/02/24 08:42:14;;;;;;;35.83;8.88;;;7.90;99.90;;;;;;5071042;28;20253;-71
2024/02/24 08:44:41;;;;;;;7.05;3.17;;;8.30;99.90;;;;;;5072304;28;20707;-71
2024/02/24 08:47:08;;;;;;;32.63;5.13;;;8.80;99.90;;;;;;5077564;28;20268;-74
2024/02/24 08:49:34;;;;;;;70.30;14.90;;;8.90;99.90;;;;;;5077578;28;20302;-73
2024/02/24 08:52:03;;;;;;;18.58;6.53;;;9.00;99.90;;;;;;5071574;28;20199;-74
2024/02/24 08:54:29;;;;;;;4.80;2.83;;;9.00;99.90;;;;;;5071879;28;20223;-74
2024/02/24 08:56:56;;;;;;;6.97;3.38;;;9.10;99.90;;;;;;5083101;28;20218;-71
2024/02/24 08:59:25;;;;;;;6.88;3.10;;;9.10;99.90;;;;;;5072086;28;20219;-70
2024/02/24 09:01:53;;;;;;;8.93;2.72;;;9.40;99.90;;;;;;5079541;28;20295;-73
2024/02/24 09:04:20;;;;;;;11.95;4.60;;;9.50;99.90;;;;;;5088633;28;20250;-75
2024/02/24 09:06:47;;;;;;;6.13;2.83;;;9.30;99.90;;;;;;5081476;28;20238;-72
2024/02/24 09:09:16;;;;;;;4.43;2.08;;;9.30;99.90;;;;;;5090789;28;20203;-71
2024/02/24 09:11:43;;;;;;;8.23;2.53;;;9.30;99.90;;;;;;5082437;28;20229;-71
2024/02/24 09:14:10;;;;;;;7.22;2.90;;;9.40;99.90;;;;;;5086441;28;20222;-74
2024/02/24 09:16:38;;;;;;;4.15;2.15;;;9.50;99.90;;;;;;5084026;28;21670;-72
2024/02/24 09:19:05;;;;;;;3.40;1.95;;;9.70;99.90;;;;;;5082058;28;20216;-75
2024/02/24 09:21:32;;;;;;;5.00;2.47;;;9.70;99.90;;;;;;5076511;28;20386;-72
2024/02/24 09:23:59;;;;;;;2.35;2.05;;;9.70;99.90;;;;;;5078592;28;20643;-72
2024/02/24 09:26:26;;;;;;;6.30;2.38;;;9.90;99.90;;;;;;5087413;28;20195;-71
2024/02/24 09:28:53;;;;;;;4.35;2.13;;;10.00;99.90;;;;;;5076938;28;20207;-73
2024/02/24 09:31:20;;;;;;;3.55;2.28;;;10.40;99.90;;;;;;5076545;28;20203;-74
2024/02/24 09:33:54;;;;;;;3.45;2.40;;;10.50;99.90;;;;;;5084833;28;20258;-74
2024/02/24 09:36:21;;;;;;;5.07;3.05;;;10.60;99.90;;;;;;5066377;28;20219;-72
2024/02/24 09:38:48;;;;;;;4.45;2.17;;;10.50;99.90;;;;;;5080824;28;20207;-74
2024/02/24 09:41:17;;;;;;;2.65;1.90;;;10.40;99.90;;;;;;5085420;28;20253;-74
2024/02/24 09:43:44;;;;;;;2.28;1.70;;;10.30;99.90;;;;;;5081447;28;20219;-70
2024/02/24 09:46:11;;;;;;;6.85;3.25;;;10.00;99.90;;;;;;5082178;28;20200;-73
2024/02/24 09:48:38;;;;;;;3.70;3.00;;;9.90;99.90;;;;;;5089346;28;20627;-74
2024/02/24 09:51:07;;;;;;;3.58;2.13;;;9.90;99.90;;;;;;5085465;28;20207;-71
2024/02/24 09:53:34;;;;;;;4.68;2.50;;;10.00;99.90;;;;;;5075142;28;20223;-72
2024/02/24 09:56:02;;;;;;;7.65;2.30;;;9.70;99.90;;;;;;5079267;28;20268;-73
2024/02/24 09:58:33;;;;;;;2.80;1.80;;;9.70;99.90;;;;;;5075570;28;20239;-70
2024/02/24 10:01:00;;;;;;;5.45;2.78;;;9.70;99.90;;;;;;5086047;28;20216;-74
2024/02/24 10:03:27;;;;;;;14.63;3.22;;;10.00;99.90;;;;;;5083166;28;20299;-73
2024/02/24 10:05:54;;;;;;;8.02;2.60;;;10.30;99.90;;;;;;5081070;28;20223;-73
2024/02/24 10:08:24;;;;;;;7.78;3.72;;;10.80;99.90;;;;;;5079705;28;20276;-70
2024/02/24 10:10:51;;;;;;;5.40;2.10;;;11.30;99.90;;;;;;5076989;28;20273;-70
2024/02/24 10:13:19;;;;;;;3.67;2.00;;;11.40;99.90;;;;;;5073917;28;20764;-71
2024/02/24 10:15:46;;;;;;;4.28;2.20;;;11.00;99.90;;;;;;5074622;28;20204;-73
2024/02/24 10:18:14;;;;;;;4.55;2.53;;;10.70;99.90;;;;;;5084697;28;20544;-70
2024/02/24 10:20:41;;;;;;;4.68;2.45;;;10.60;99.90;;;;;;5088741;28;20207;-71
2024/02/24 10:23:08;;;;;;;7.18;3.05;;;10.50;99.90;;;;;;5073090;28;20250;-74
2024/02/24 10:25:36;;;;;;;5.43;2.00;;;10.40;99.90;;;;;;5086414;28;20258;-74
2024/02/24 10:28:05;;;;;;;9.70;2.90;;;10.20;99.90;;;;;;5078904;28;20271;-70
2024/02/24 10:30:33;;;;;;;4.00;2.33;;;10.40;99.90;;;;;;5077859;28;20310;-73
2024/02/24 10:33:01;;;;;;;4.35;3.00;;;10.40;99.90;;;;;;5076139;28;20215;-71
2024/02/24 10:35:29;;;;;;;9.63;2.80;;;10.50;99.90;;;;;;5073666;28;20199;-72
2024/02/24 10:37:56;;;;;;;4.07;2.63;;;10.70;99.90;;;;;;5076133;28;20301;-70
2024/02/24 10:40:23;;;;;;;9.57;3.65;;;10.40;99.90;;;;;;5080515;28;20811;-72
2024/02/24 10:42:52;;;;;;;6.70;3.42;;;10.60;99.90;;;;;;5074098;28;20273;-75
2024/02/24 10:45:19;;;;;;;6.40;3.35;;;10.70;99.90;;;;;;5075287;28;20239;-71
2024/02/24 10:47:47;;;;;;;3.40;3.10;;;10.80;99.90;;;;;;5086835;28;20207;-71
2024/02/24 10:50:14;;;;;;;6.32;3.70;;;10.90;99.90;;;;;;5078347;28;20625;-74
2024/02/24 10:52:42;;;;;;;5.85;3.13;;;11.20;99.90;;;;;;5072969;28;20750;-72
2024/02/24 10:55:10;;;;;;;19.92;5.30;;;11.10;99.90;;;;;;5080029;28;20260;-72
2024/02/24 10:57:38;;;;;;;12.95;4.47;;;11.30;99.90;;;;;;5090259;28;20696;-70
2024/02/24 11:00:29;;;;;;;4.38;2.95;;;11.70;99.90;;;;;;5078761;28;20311;-73
2024/02/24 11:02:58;;;;;;;11.02;3.47;;;12.20;99.90;;;;;;5075015;28;20235;-74
2024/02/24 11:05:25;;;;;;;6.88;4.20;;;12.60;99.90;;;;;;5078094;28;20203;-73
2024/02/24 11:07:52;;;;;;;9.10;3.90;;;12.80;99.90;;;;;;5074791;28;20224;-73
2024/02/24 11:10:20;;;;;;;17.35;4.88;;;12.80;99.90;;;;;;5079775;28;20256;-72
2024/02/24 11:12:50;;;;;;;7.72;3.60;;;12.70;99.90;;;;;;5074594;28;20223;-73
2024/02/24 11:15:23;;;;;;;4.38;2.80;;;12.50;99.90;;;;;;5072916;28;20241;-72
2024/02/24 11:17:55;;;;;;;10.10;3.38;;;12.50;99.90;;;;;;5075632;28;20223;-72
2024/02/24 11:20:56;;;;;;;8.18;2.97;;;12.50;99.90;;;;;;5079531;28;20211;-73
2024/02/24 11:23:23;;;;;;;5.10;2.78;;;12.50;99.90;;;;;;5074375;28;20277;-71
2024/02/24 11:26:10;;;;;;;2.35;1.80;;;12.20;99.90;;;;;;5079072;28;20261;-72
2024/02/24 11:28:38;;;;;;;8.63;3.00;;;12.10;99.90;;;;;;5077389;28;20202;-73
2024/02/24 11:31:05;;;;;;;3.17;2.10;;;12.10;99.90;;;;;;5075621;28;20662;-70
2024/02/24 11:33:37;;;;;;;7.72;2.80;;;12.00;99.90;;;;;;5075352;28;20230;-73
2024/02/24 11:36:05;;;;;;;2.60;2.20;;;11.80;99.90;;;;;;5076387;28;20553;-71
2024/02/24 11:38:33;;;;;;;2.63;1.98;;;11.70;99.90;;;;;;5078814;28;20226;-72
2024/02/24 11:41:04;;;;;;;7.80;2.92;;;11.70;99.90;;;;;;5080997;28;20210;-73
2024/02/24 11:43:31;;;;;;;6.18;2.28;;;11.80;99.90;;;;;;5082798;28;20242;-71
2024/02/24 11:45:58;;;;;;;4.82;3.00;;;11.70;99.90;;;;;;5082318;28;20206;-72
2024/02/24 11:48:25;;;;;;;5.43;2.15;;;11.30;99.90;;;;;;5079365;28;20257;-71
2024/02/24 11:50:53;;;;;;;5.05;3.03;;;11.10;99.90;;;;;;5080831;28;20584;-73
2024/02/24 11:53:20;;;;;;;3.85;2.40;;;10.90;99.90;;;;;;5077145;28;20225;-74
2024/02/24 11:55:49;;;;;;;6.50;2.15;;;11.00;99.90;;;;;;5079647;28;20285;-72
2024/02/24 11:58:17;;;;;;;2.15;1.92;;;11.20;99.90;;;;;;5077608;28;20222;-70
2024/02/24 12:00:44;;;;;;;3.25;2.40;;;11.30;99.90;;;;;;5075885;28;20728;-73
2024/02/24 12:03:12;;;;;;;7.18;2.80;;;11.50;99.90;;;;;;5072192;28;20243;-70
2024/02/24 12:05:40;;;;;;;6.57;2.50;;;11.70;99.90;;;;;;5079457;28;20218;-74
2024/02/24 12:08:15;;;;;;;3.65;2.35;;;11.70;99.90;;;;;;5076823;28;20210;-71
2024/02/24 12:10:42;;;;;;;2.85;1.75;;;11.30;99.90;;;;;;5077123;28;20256;-73
2024/02/24 12:13:10;;;;;;;2.22;2.03;;;11.40;99.90;;;;;;5085421;28;20236;-72
2024/02/24 12:15:39;;;;;;;2.50;2.30;;;11.70;99.90;;;;;;5077857;28;20245;-71
2024/02/24 12:18:07;;;;;;;3.70;2.00;;;11.70;99.90;;;;;;5077121;28;20223;-71
2024/02/24 12:20:36;;;;;;;4.93;3.17;;;11.50;99.90;;;;;;5085412;28;20567;-71
2024/02/24 12:23:05;;;;;;;5.80;2.80;;;11.50;99.90;;;;;;5074379;28;20644;-74
2024/02/24 12:25:34;;;;;;;4.95;2.70;;;11.60;99.90;;;;;;5073635;28;20245;-69
2024/02/24 12:28:03;;;;;;;2.65;1.75;;;11.30;99.90;;;;;;5076472;28;20280;-74
2024/02/24 12:30:35;;;;;;;2.25;1.80;;;11.30;99.90;;;;;;5083334;28;20234;-73
2024/02/24 12:33:03;;;;;;;6.65;2.67;;;11.20;99.90;;;;;;5081169;28;20250;-71
2024/02/24 12:35:30;;;;;;;3.00;2.17;;;11.10;99.90;;;;;;5078973;28;20268;-70
2024/02/24 12:37:58;;;;;;;8.85;2.42;;;11.10;99.90;;;;;;5083105;28;20214;-76
2024/02/24 12:40:28;;;;;;;8.38;2.25;;;11.20;99.90;;;;;;5081602;28;20202;-72
2024/02/24 12:42:57;;;;;;;3.90;1.65;;;11.30;99.90;;;;;;5089642;28;20226;-72
2024/02/24 12:45:25;;;;;;;2.33;1.70;;;11.30;99.90;;;;;;5081978;28;20283;-72
2024/02/24 12:47:52;;;;;;;9.70;2.75;;;11.40;99.90;;;;;;5083802;28;20256;-72
2024/02/24 12:50:19;;;;;;;4.20;2.45;;;11.20;99.90;;;;;;5079862;28;20208;-74
2024/02/24 12:52:46;;;;;;;3.55;2.63;;;11.20;99.90;;;;;;5085378;28;20321;-73
2024/02/24 12:55:14;;;;;;;4.57;2.10;;;10.90;99.90;;;;;;5075163;28;20203;-72